sensor_id;sensor_type;location;lat;lon;timestamp;temperature;humidity
52459;DHT22;38372;52.902;6.024;2024-03-08T00:02:36;2.00;99.90
52459;DHT22;38372;52.902;6.024;2024-03-08T00:05:06;2.00;99.90
52459;DHT22;38372;52.902;6.024;2024-03-08T00:07:34;2.00;99.90
52459;DHT22;38372;52.902;6.024;2024-03-08T00:10:00;1.90;99.90
52459;DHT22;38372;52.902;6.024;2024-03-08T00:12:26;1.90;99.90
52459;DHT22;38372;52.902;6.024;2024-03-08T00:14:53;1.90;99.90
52459;DHT22;38372;52.902;6.024;2024-03-08T00:17:21;1.90;99.90
52459;DHT22;38372;52.902;6.024;2024-03-08T00:20:03;1.90;99.90
52459;DHT22;38372;52.902;6.024;2024-03-08T00:22:41;1.90;99.90
52459;DHT22;38372;52.902;6.024;2024-03-08T00:25:13;1.80;99.90
52459;DHT22;38372;52.902;6.024;2024-03-08T00:27:52;1.80;99.90
52459;DHT22;38372;52.902;6.024;2024-03-08T00:30:22;1.80;99.90
52459;DHT22;38372;52.902;6.024;2024-03-08T00:32:50;1.80;99.90
52459;DHT22;38372;52.902;6.024;2024-03-08T00:35:16;1.70;99.90
52459;DHT22;38372;52.902;6.024;2024-03-08T00:37:42;1.70;99.90
52459;DHT22;38372;52.902;6.024;2024-03-08T00:40:08;1.70;99.90
52459;DHT22;38372;52.902;6.024;2024-03-08T00:42:37;1.60;99.90
52459;DHT22;38372;52.902;6.024;2024-03-08T00:45:04;1.60;99.90
52459;DHT22;38372;52.902;6.024;2024-03-08T00:47:30;1.60;99.90
52459;DHT22;38372;52.902;6.024;2024-03-08T00:49:56;1.60;99.90
52459;DHT22;38372;52.902;6.024;2024-03-08T00:52:22;1.60;99.90
52459;DHT22;38372;52.902;6.024;2024-03-08T00:54:49;1.60;99.90
52459;DHT22;38372;52.902;6.024;2024-03-08T00:57:15;1.60;99.90
52459;DHT22;38372;52.902;6.024;2024-03-08T00:59:41;1.60;99.90
52459;DHT22;38372;52.902;6.024;2024-03-08T01:02:07;1.60;99.90
52459;DHT22;38372;52.902;6.024;2024-03-08T01:04:34;1.60;99.90
52459;DHT22;38372;52.902;6.024;2024-03-08T01:07:01;1.60;99.90
52459;DHT22;38372;52.902;6.024;2024-03-08T01:09:27;1.60;99.90
52459;DHT22;38372;52.902;6.024;2024-03-08T01:11:53;1.60;99.90
52459;DHT22;38372;52.902;6.024;2024-03-08T01:14:20;1.60;99.90
52459;DHT22;38372;52.902;6.024;2024-03-08T01:16:49;1.60;99.90
52459;DHT22;38372;52.902;6.024;2024-03-08T01:19:15;1.60;99.90
52459;DHT22;38372;52.902;6.024;2024-03-08T01:21:41;1.60;99.90
52459;DHT22;38372;52.902;6.024;2024-03-08T01:24:07;1.60;99.90
52459;DHT22;38372;52.902;6.024;2024-03-08T01:26:33;1.60;99.90
52459;DHT22;38372;52.902;6.024;2024-03-08T01:29:08;1.50;99.90
52459;DHT22;38372;52.902;6.024;2024-03-08T01:31:34;1.50;99.90
52459;DHT22;38372;52.902;6.024;2024-03-08T01:34:02;1.50;99.90
52459;DHT22;38372;52.902;6.024;2024-03-08T01:36:28;1.50;99.90
52459;DHT22;38372;52.902;6.024;2024-03-08T01:38:53;1.50;99.90
52459;DHT22;38372;52.902;6.024;2024-03-08T01:41:19;1.50;99.90
52459;DHT22;38372;52.902;6.024;2024-03-08T01:43:45;1.50;99.90
52459;DHT22;38372;52.902;6.024;2024-03-08T01:46:14;1.40;99.90
52459;DHT22;38372;52.902;6.024;2024-03-08T01:48:42;1.40;99.90
52459;DHT22;38372;52.902;6.024;2024-03-08T01:51:08;1.40;99.90
52459;DHT22;38372;52.902;6.024;2024-03-08T01:53:35;1.40;99.90
52459;DHT22;38372;52.902;6.024;2024-03-08T01:56:02;1.40;99.90
52459;DHT22;38372;52.902;6.024;2024-03-08T01:58:29;1.30;99.90
52459;DHT22;38372;52.902;6.024;2024-03-08T02:00:56;1.30;99.90
52459;DHT22;38372;52.902;6.024;2024-03-08T02:03:23;1.30;99.90
52459;DHT22;38372;52.902;6.024;2024-03-08T02:05:49;1.30;99.90
52459;DHT22;38372;52.902;6.024;2024-03-08T02:08:17;1.30;99.90
52459;DHT22;38372;52.902;6.024;2024-03-08T02:10:44;1.30;99.90
52459;DHT22;38372;52.902;6.024;2024-03-08T02:13:11;1.30;99.90
52459;DHT22;38372;52.902;6.024;2024-03-08T02:15:57;1.30;99.90
52459;DHT22;38372;52.902;6.024;2024-03-08T02:18:25;1.30;99.90
52459;DHT22;38372;52.902;6.024;2024-03-08T02:20:54;1.30;99.90
52459;DHT22;38372;52.902;6.024;2024-03-08T02:23:21;1.30;99.90
52459;DHT22;38372;52.902;6.024;2024-03-08T02:25:50;1.30;99.90
52459;DHT22;38372;52.902;6.024;2024-03-08T02:28:23;1.30;99.90
52459;DHT22;38372;52.902;6.024;2024-03-08T02:30:51;1.30;99.90
52459;DHT22;38372;52.902;6.024;2024-03-08T02:33:20;1.30;99.90
52459;DHT22;38372;52.902;6.024;2024-03-08T02:35:47;1.30;99.90
52459;DHT22;38372;52.902;6.024;2024-03-08T02:38:20;1.30;99.90
52459;DHT22;38372;52.902;6.024;2024-03-08T02:40:50;1.40;99.90
52459;DHT22;38372;52.902;6.024;2024-03-08T02:43:16;1.30;99.90
52459;DHT22;38372;52.902;6.024;2024-03-08T02:45:46;1.30;99.90
52459;DHT22;38372;52.902;6.024;2024-03-08T02:48:13;1.30;99.90
52459;DHT22;38372;52.902;6.024;2024-03-08T02:50:39;1.30;99.90
52459;DHT22;38372;52.902;6.024;2024-03-08T02:53:06;1.30;99.90
52459;DHT22;38372;52.902;6.024;2024-03-08T02:55:32;1.30;99.90
52459;DHT22;38372;52.902;6.024;2024-03-08T02:58:02;1.30;99.90
52459;DHT22;38372;52.902;6.024;2024-03-08T03:00:29;1.30;99.90
52459;DHT22;38372;52.902;6.024;2024-03-08T03:02:58;1.30;99.90
52459;DHT22;38372;52.902;6.024;2024-03-08T03:05:24;1.30;99.90
52459;DHT22;38372;52.902;6.024;2024-03-08T03:07:50;1.30;99.90
52459;DHT22;38372;52.902;6.024;2024-03-08T03:10:17;1.40;99.90
52459;DHT22;38372;52.902;6.024;2024-03-08T03:12:44;1.40;99.90
52459;DHT22;38372;52.902;6.024;2024-03-08T03:15:13;1.40;99.90
52459;DHT22;38372;52.902;6.024;2024-03-08T03:17:39;1.30;99.90
52459;DHT22;38372;52.902;6.024;2024-03-08T03:20:09;1.30;99.90
52459;DHT22;38372;52.902;6.024;2024-03-08T03:22:36;1.30;99.90
52459;DHT22;38372;52.902;6.024;2024-03-08T03:25:08;1.30;99.90
52459;DHT22;38372;52.902;6.024;2024-03-08T03:27:41;1.40;99.90
52459;DHT22;38372;52.902;6.024;2024-03-08T03:30:15;1.30;99.90
52459;DHT22;38372;52.902;6.024;2024-03-08T03:32:47;1.30;99.90
52459;DHT22;38372;52.902;6.024;2024-03-08T03:35:14;1.30;99.90
52459;DHT22;38372;52.902;6.024;2024-03-08T03:37:43;1.30;99.90
52459;DHT22;38372;52.902;6.024;2024-03-08T03:40:12;1.30;99.90
52459;DHT22;38372;52.902;6.024;2024-03-08T03:42:38;1.30;99.90
52459;DHT22;38372;52.902;6.024;2024-03-08T03:45:06;1.30;99.90
52459;DHT22;38372;52.902;6.024;2024-03-08T03:47:32;1.30;99.90
52459;DHT22;38372;52.902;6.024;2024-03-08T03:49:57;1.30;99.90
52459;DHT22;38372;52.902;6.024;2024-03-08T03:52:27;1.20;99.90
52459;DHT22;38372;52.902;6.024;2024-03-08T03:54:53;1.20;99.90
52459;DHT22;38372;52.902;6.024;2024-03-08T03:57:19;1.20;99.90
52459;DHT22;38372;52.902;6.024;2024-03-08T03:59:48;1.20;99.90
52459;DHT22;38372;52.902;6.024;2024-03-08T04:02:14;1.20;99.90
52459;DHT22;38372;52.902;6.024;2024-03-08T04:04:40;1.20;99.90
52459;DHT22;38372;52.902;6.024;2024-03-08T04:07:06;1.20;99.90
52459;DHT22;38372;52.902;6.024;2024-03-08T04:09:33;1.20;99.90
52459;DHT22;38372;52.902;6.024;2024-03-08T04:12:00;1.20;99.90
52459;DHT22;38372;52.902;6.024;2024-03-08T04:14:26;1.20;99.90
52459;DHT22;38372;52.902;6.024;2024-03-08T04:16:52;1.30;99.90
52459;DHT22;38372;52.902;6.024;2024-03-08T04:19:18;1.20;99.90
52459;DHT22;38372;52.902;6.024;2024-03-08T04:21:44;1.20;99.90
52459;DHT22;38372;52.902;6.024;2024-03-08T04:24:10;1.20;99.90
52459;DHT22;38372;52.902;6.024;2024-03-08T04:26:42;1.20;99.90
52459;DHT22;38372;52.902;6.024;2024-03-08T04:29:09;1.20;99.90
52459;DHT22;38372;52.902;6.024;2024-03-08T04:31:34;1.20;99.90
52459;DHT22;38372;52.902;6.024;2024-03-08T04:34:00;1.20;99.90
52459;DHT22;38372;52.902;6.024;2024-03-08T04:36:26;1.10;99.90
52459;DHT22;38372;52.902;6.024;2024-03-08T04:38:52;1.10;99.90
52459;DHT22;38372;52.902;6.024;2024-03-08T04:41:18;1.10;99.90
52459;DHT22;38372;52.902;6.024;2024-03-08T04:43:44;1.10;99.90
52459;DHT22;38372;52.902;6.024;2024-03-08T04:46:10;1.10;99.90
52459;DHT22;38372;52.902;6.024;2024-03-08T04:48:35;1.10;99.90
52459;DHT22;38372;52.902;6.024;2024-03-08T04:51:03;1.00;99.90
52459;DHT22;38372;52.902;6.024;2024-03-08T04:53:29;1.00;99.90
52459;DHT22;38372;52.902;6.024;2024-03-08T04:55:57;1.00;99.90
52459;DHT22;38372;52.902;6.024;2024-03-08T04:58:23;1.00;99.90
52459;DHT22;38372;52.902;6.024;2024-03-08T05:00:49;1.00;99.90
52459;DHT22;38372;52.902;6.024;2024-03-08T05:03:16;0.90;99.90
52459;DHT22;38372;52.902;6.024;2024-03-08T05:05:42;0.90;99.90
52459;DHT22;38372;52.902;6.024;2024-03-08T05:08:08;0.90;99.90
52459;DHT22;38372;52.902;6.024;2024-03-08T05:10:33;0.90;99.90
52459;DHT22;38372;52.902;6.024;2024-03-08T05:12:59;0.90;99.90
52459;DHT22;38372;52.902;6.024;2024-03-08T05:15:25;0.90;99.90
52459;DHT22;38372;52.902;6.024;2024-03-08T05:17:51;0.80;99.90
52459;DHT22;38372;52.902;6.024;2024-03-08T05:20:17;0.80;99.90
52459;DHT22;38372;52.902;6.024;2024-03-08T05:22:43;0.80;99.90
52459;DHT22;38372;52.902;6.024;2024-03-08T05:25:08;0.80;99.90
52459;DHT22;38372;52.902;6.024;2024-03-08T05:27:41;0.70;99.90
52459;DHT22;38372;52.902;6.024;2024-03-08T05:30:13;0.70;99.90
52459;DHT22;38372;52.902;6.024;2024-03-08T05:32:41;0.70;99.90
52459;DHT22;38372;52.902;6.024;2024-03-08T05:35:11;0.70;99.90
52459;DHT22;38372;52.902;6.024;2024-03-08T05:37:38;0.60;99.90
52459;DHT22;38372;52.902;6.024;2024-03-08T05:40:05;0.60;99.90
52459;DHT22;38372;52.902;6.024;2024-03-08T05:42:35;0.60;99.90
52459;DHT22;38372;52.902;6.024;2024-03-08T05:45:02;0.60;99.90
52459;DHT22;38372;52.902;6.024;2024-03-08T05:47:28;0.60;99.90
52459;DHT22;38372;52.902;6.024;2024-03-08T05:49:54;0.60;99.90
52459;DHT22;38372;52.902;6.024;2024-03-08T05:52:20;0.60;99.90
52459;DHT22;38372;52.902;6.024;2024-03-08T05:54:46;0.50;99.90
52459;DHT22;38372;52.902;6.024;2024-03-08T05:57:12;0.50;99.90
52459;DHT22;38372;52.902;6.024;2024-03-08T05:59:45;0.50;99.90
52459;DHT22;38372;52.902;6.024;2024-03-08T06:02:21;0.50;99.90
52459;DHT22;38372;52.902;6.024;2024-03-08T06:05:12;0.50;99.90
52459;DHT22;38372;52.902;6.024;2024-03-08T06:07:38;0.50;99.90
52459;DHT22;38372;52.902;6.024;2024-03-08T06:10:11;0.40;99.90
52459;DHT22;38372;52.902;6.024;2024-03-08T06:12:58;0.50;99.90
52459;DHT22;38372;52.902;6.024;2024-03-08T06:15:35;0.50;99.90
52459;DHT22;38372;52.902;6.024;2024-03-08T06:18:04;0.50;99.90
52459;DHT22;38372;52.902;6.024;2024-03-08T06:20:32;0.50;99.90
52459;DHT22;38372;52.902;6.024;2024-03-08T06:23:01;0.40;99.90
52459;DHT22;38372;52.902;6.024;2024-03-08T06:25:38;0.50;99.90
52459;DHT22;38372;52.902;6.024;2024-03-08T06:28:17;0.50;99.90
52459;DHT22;38372;52.902;6.024;2024-03-08T06:30:59;0.50;99.90
52459;DHT22;38372;52.902;6.024;2024-03-08T06:33:35;0.50;99.90
52459;DHT22;38372;52.902;6.024;2024-03-08T06:36:09;0.50;99.90
52459;DHT22;38372;52.902;6.024;2024-03-08T06:38:38;0.60;99.90
52459;DHT22;38372;52.902;6.024;2024-03-08T06:41:11;0.60;99.90
52459;DHT22;38372;52.902;6.024;2024-03-08T06:43:52;0.70;99.90
52459;DHT22;38372;52.902;6.024;2024-03-08T06:46:26;0.70;99.90
52459;DHT22;38372;52.902;6.024;2024-03-08T06:48:54;0.80;99.90
52459;DHT22;38372;52.902;6.024;2024-03-08T06:51:20;0.80;99.90
52459;DHT22;38372;52.902;6.024;2024-03-08T06:53:49;0.90;99.90
52459;DHT22;38372;52.902;6.024;2024-03-08T06:56:15;1.00;99.90
52459;DHT22;38372;52.902;6.024;2024-03-08T06:58:44;1.00;99.90
52459;DHT22;38372;52.902;6.024;2024-03-08T07:01:11;1.10;99.90
52459;DHT22;38372;52.902;6.024;2024-03-08T07:03:43;1.20;99.90
52459;DHT22;38372;52.902;6.024;2024-03-08T07:06:13;1.30;99.90
52459;DHT22;38372;52.902;6.024;2024-03-08T07:08:44;1.30;99.90
52459;DHT22;38372;52.902;6.024;2024-03-08T07:11:14;1.30;99.90
52459;DHT22;38372;52.902;6.024;2024-03-08T07:14:02;1.40;99.90
52459;DHT22;38372;52.902;6.024;2024-03-08T07:16:33;1.40;99.90
52459;DHT22;38372;52.902;6.024;2024-03-08T07:19:02;1.40;99.90
52459;DHT22;38372;52.902;6.024;2024-03-08T07:21:29;1.40;99.90
52459;DHT22;38372;52.902;6.024;2024-03-08T07:24:00;1.50;99.90
52459;DHT22;38372;52.902;6.024;2024-03-08T07:26:55;1.50;99.90
52459;DHT22;38372;52.902;6.024;2024-03-08T07:29:25;1.60;99.90
52459;DHT22;38372;52.902;6.024;2024-03-08T07:31:53;1.60;99.90
52459;DHT22;38372;52.902;6.024;2024-03-08T07:34:30;1.70;99.90
52459;DHT22;38372;52.902;6.024;2024-03-08T07:36:58;1.70;99.90
52459;DHT22;38372;52.902;6.024;2024-03-08T07:39:25;1.80;99.90
52459;DHT22;38372;52.902;6.024;2024-03-08T07:41:54;1.90;99.90
52459;DHT22;38372;52.902;6.024;2024-03-08T07:44:23;1.90;99.90
52459;DHT22;38372;52.902;6.024;2024-03-08T07:46:50;2.00;99.90
52459;DHT22;38372;52.902;6.024;2024-03-08T07:49:17;2.00;99.90
52459;DHT22;38372;52.902;6.024;2024-03-08T07:51:45;2.10;99.90
52459;DHT22;38372;52.902;6.024;2024-03-08T07:54:11;2.20;99.90
52459;DHT22;38372;52.902;6.024;2024-03-08T07:56:39;2.30;99.90
52459;DHT22;38372;52.902;6.024;2024-03-08T07:59:05;2.40;99.90
52459;DHT22;38372;52.902;6.024;2024-03-08T08:01:33;2.50;99.90
52459;DHT22;38372;52.902;6.024;2024-03-08T08:04:00;2.70;99.90
52459;DHT22;38372;52.902;6.024;2024-03-08T08:06:35;2.80;99.90
52459;DHT22;38372;52.902;6.024;2024-03-08T08:09:02;2.90;99.90
52459;DHT22;38372;52.902;6.024;2024-03-08T08:11:28;3.10;99.90
52459;DHT22;38372;52.902;6.024;2024-03-08T08:13:59;3.30;99.90
52459;DHT22;38372;52.902;6.024;2024-03-08T08:16:29;3.40;99.90
52459;DHT22;38372;52.902;6.024;2024-03-08T08:19:00;3.70;99.90
52459;DHT22;38372;52.902;6.024;2024-03-08T08:21:31;4.10;99.90
52459;DHT22;38372;52.902;6.024;2024-03-08T08:24:04;4.70;99.90
52459;DHT22;38372;52.902;6.024;2024-03-08T08:26:32;5.40;99.90
52459;DHT22;38372;52.902;6.024;2024-03-08T08:29:19;6.00;99.90
52459;DHT22;38372;52.902;6.024;2024-03-08T08:31:51;6.40;99.90
52459;DHT22;38372;52.902;6.024;2024-03-08T08:34:20;6.60;99.90
52459;DHT22;38372;52.902;6.024;2024-03-08T08:36:53;6.80;99.90
52459;DHT22;38372;52.902;6.024;2024-03-08T08:39:21;7.00;99.90
52459;DHT22;38372;52.902;6.024;2024-03-08T08:41:48;7.20;99.90
52459;DHT22;38372;52.902;6.024;2024-03-08T08:44:19;7.60;99.90
52459;DHT22;38372;52.902;6.024;2024-03-08T08:46:47;7.90;99.90
52459;DHT22;38372;52.902;6.024;2024-03-08T08:49:13;8.10;99.90
52459;DHT22;38372;52.902;6.024;2024-03-08T08:51:52;8.10;99.90
52459;DHT22;38372;52.902;6.024;2024-03-08T08:54:21;8.10;99.90
52459;DHT22;38372;52.902;6.024;2024-03-08T08:56:48;8.30;99.90
52459;DHT22;38372;52.902;6.024;2024-03-08T08:59:17;8.50;99.90
52459;DHT22;38372;52.902;6.024;2024-03-08T09:01:46;8.80;99.90
52459;DHT22;38372;52.902;6.024;2024-03-08T09:04:14;8.70;99.90
52459;DHT22;38372;52.902;6.024;2024-03-08T09:06:43;8.50;99.90
52459;DHT22;38372;52.902;6.024;2024-03-08T09:09:14;8.40;99.90
52459;DHT22;38372;52.902;6.024;2024-03-08T09:11:45;8.40;99.90
52459;DHT22;38372;52.902;6.024;2024-03-08T09:14:14;8.60;99.90
52459;DHT22;38372;52.902;6.024;2024-03-08T09:16:45;8.70;99.90
52459;DHT22;38372;52.902;6.024;2024-03-08T09:19:16;8.70;99.90
52459;DHT22;38372;52.902;6.024;2024-03-08T09:22:09;8.90;99.90
52459;DHT22;38372;52.902;6.024;2024-03-08T09:24:38;8.80;99.90
52459;DHT22;38372;52.902;6.024;2024-03-08T09:27:05;8.80;99.90
52459;DHT22;38372;52.902;6.024;2024-03-08T09:29:50;9.00;99.90
52459;DHT22;38372;52.902;6.024;2024-03-08T09:32:19;9.20;99.90
52459;DHT22;38372;52.902;6.024;2024-03-08T09:34:51;9.50;99.90
52459;DHT22;38372;52.902;6.024;2024-03-08T09:37:18;9.70;99.90
52459;DHT22;38372;52.902;6.024;2024-03-08T09:39:44;9.90;99.90
52459;DHT22;38372;52.902;6.024;2024-03-08T09:42:11;10.20;99.90
52459;DHT22;38372;52.902;6.024;2024-03-08T09:44:47;10.50;99.90
52459;DHT22;38372;52.902;6.024;2024-03-08T09:47:18;10.40;99.90
52459;DHT22;38372;52.902;6.024;2024-03-08T09:49:46;10.50;99.90
52459;DHT22;38372;52.902;6.024;2024-03-08T09:52:17;10.50;99.90
52459;DHT22;38372;52.902;6.024;2024-03-08T09:54:57;10.70;99.90
52459;DHT22;38372;52.902;6.024;2024-03-08T09:57:27;10.70;99.90
52459;DHT22;38372;52.902;6.024;2024-03-08T09:59:53;10.90;99.90
52459;DHT22;38372;52.902;6.024;2024-03-08T10:02:20;11.10;99.90
52459;DHT22;38372;52.902;6.024;2024-03-08T10:04:51;11.20;99.90
52459;DHT22;38372;52.902;6.024;2024-03-08T10:07:19;11.50;99.90
52459;DHT22;38372;52.902;6.024;2024-03-08T10:09:46;11.60;99.90
52459;DHT22;38372;52.902;6.024;2024-03-08T10:12:36;11.70;99.90
52459;DHT22;38372;52.902;6.024;2024-03-08T10:15:08;11.60;99.90
52459;DHT22;38372;52.902;6.024;2024-03-08T10:17:38;11.40;99.90
52459;DHT22;38372;52.902;6.024;2024-03-08T10:20:19;11.60;99.90
52459;DHT22;38372;52.902;6.024;2024-03-08T10:22:45;11.90;99.90
52459;DHT22;38372;52.902;6.024;2024-03-08T10:25:13;12.10;99.90
52459;DHT22;38372;52.902;6.024;2024-03-08T10:27:46;12.20;99.90
52459;DHT22;38372;52.902;6.024;2024-03-08T10:30:26;12.20;99.90
52459;DHT22;38372;52.902;6.024;2024-03-08T10:32:53;12.20;99.90
52459;DHT22;38372;52.902;6.024;2024-03-08T10:35:19;12.30;99.90
52459;DHT22;38372;52.902;6.024;2024-03-08T10:37:48;12.30;99.90
52459;DHT22;38372;52.902;6.024;2024-03-08T10:40:32;12.10;99.20
52459;DHT22;38372;52.902;6.024;2024-03-08T10:43:03;12.00;99.90
52459;DHT22;38372;52.902;6.024;2024-03-08T10:45:39;12.00;99.90
52459;DHT22;38372;52.902;6.024;2024-03-08T10:48:30;12.30;99.90
52459;DHT22;38372;52.902;6.024;2024-03-08T10:51:03;12.60;99.60
52459;DHT22;38372;52.902;6.024;2024-03-08T10:53:37;12.70;98.70
52459;DHT22;38372;52.902;6.024;2024-03-08T10:56:07;12.60;98.90
52459;DHT22;38372;52.902;6.024;2024-03-08T10:58:38;12.40;97.90
52459;DHT22;38372;52.902;6.024;2024-03-08T11:01:05;12.30;97.60
52459;DHT22;38372;52.902;6.024;2024-03-08T11:03:44;12.30;98.70
52459;DHT22;38372;52.902;6.024;2024-03-08T11:06:21;12.60;98.70
52459;DHT22;38372;52.902;6.024;2024-03-08T11:08:56;12.60;97.30
52459;DHT22;38372;52.902;6.024;2024-03-08T11:11:33;12.50;97.60
52459;DHT22;38372;52.902;6.024;2024-03-08T11:14:03;12.70;97.00
52459;DHT22;38372;52.902;6.024;2024-03-08T11:19:25;12.40;95.90
52459;DHT22;38372;52.902;6.024;2024-03-08T11:22:02;12.50;97.70
52459;DHT22;38372;52.902;6.024;2024-03-08T11:24:38;12.70;98.40
52459;DHT22;38372;52.902;6.024;2024-03-08T11:27:10;12.90;97.00
52459;DHT22;38372;52.902;6.024;2024-03-08T11:30:02;13.00;96.80
52459;DHT22;38372;52.902;6.024;2024-03-08T11:32:47;12.60;95.80
52459;DHT22;38372;52.902;6.024;2024-03-08T11:35:22;12.50;97.40
52459;DHT22;38372;52.902;6.024;2024-03-08T11:37:50;12.70;94.90
52459;DHT22;38372;52.902;6.024;2024-03-08T11:40:19;12.90;98.00
52459;DHT22;38372;52.902;6.024;2024-03-08T11:42:50;12.80;98.70
52459;DHT22;38372;52.902;6.024;2024-03-08T11:45:21;12.50;95.80
52459;DHT22;38372;52.902;6.024;2024-03-08T11:47:47;12.10;97.30
52459;DHT22;38372;52.902;6.024;2024-03-08T11:50:16;12.00;99.80
52459;DHT22;38372;52.902;6.024;2024-03-08T11:52:45;12.00;98.20
52459;DHT22;38372;52.902;6.024;2024-03-08T11:55:17;11.90;97.80
52459;DHT22;38372;52.902;6.024;2024-03-08T11:57:44;11.80;96.60
52459;DHT22;38372;52.902;6.024;2024-03-08T12:00:19;11.70;98.50
52459;DHT22;38372;52.902;6.024;2024-03-08T12:03:03;11.60;99.20
52459;DHT22;38372;52.902;6.024;2024-03-08T12:05:29;11.50;98.80
52459;DHT22;38372;52.902;6.024;2024-03-08T12:08:01;11.40;97.90
52459;DHT22;38372;52.902;6.024;2024-03-08T12:10:28;11.60;99.40
52459;DHT22;38372;52.902;6.024;2024-03-08T12:13:01;12.00;99.10
52459;DHT22;38372;52.902;6.024;2024-03-08T12:15:29;12.30;98.20
52459;DHT22;38372;52.902;6.024;2024-03-08T12:18:01;12.10;97.50
52459;DHT22;38372;52.902;6.024;2024-03-08T12:20:33;12.40;98.80
52459;DHT22;38372;52.902;6.024;2024-03-08T12:23:01;12.90;98.50
52459;DHT22;38372;52.902;6.024;2024-03-08T12:25:34;13.00;98.30
52459;DHT22;38372;52.902;6.024;2024-03-08T12:28:12;12.80;98.70
52459;DHT22;38372;52.902;6.024;2024-03-08T12:30:50;12.50;97.00
52459;DHT22;38372;52.902;6.024;2024-03-08T12:33:28;12.50;95.90
52459;DHT22;38372;52.902;6.024;2024-03-08T12:36:00;12.40;98.00
52459;DHT22;38372;52.902;6.024;2024-03-08T12:38:29;12.10;98.70
52459;DHT22;38372;52.902;6.024;2024-03-08T12:41:01;12.00;98.10
52459;DHT22;38372;52.902;6.024;2024-03-08T12:43:29;12.20;97.30
52459;DHT22;38372;52.902;6.024;2024-03-08T12:46:07;12.20;97.40
52459;DHT22;38372;52.902;6.024;2024-03-08T12:48:35;12.30;97.30
52459;DHT22;38372;52.902;6.024;2024-03-08T12:51:03;12.10;96.00
52459;DHT22;38372;52.902;6.024;2024-03-08T12:53:29;11.80;96.70
52459;DHT22;38372;52.902;6.024;2024-03-08T12:56:02;11.80;96.80
52459;DHT22;38372;52.902;6.024;2024-03-08T12:58:35;11.80;96.20
52459;DHT22;38372;52.902;6.024;2024-03-08T13:01:13;11.80;97.20
52459;DHT22;38372;52.902;6.024;2024-03-08T13:03:43;11.90;97.70
52459;DHT22;38372;52.902;6.024;2024-03-08T13:06:10;12.00;96.20
52459;DHT22;38372;52.902;6.024;2024-03-08T13:08:37;12.00;96.80
52459;DHT22;38372;52.902;6.024;2024-03-08T13:11:14;11.90;96.00
52459;DHT22;38372;52.902;6.024;2024-03-08T13:13:43;11.50;96.50
52459;DHT22;38372;52.902;6.024;2024-03-08T13:16:14;11.50;95.60
52459;DHT22;38372;52.902;6.024;2024-03-08T13:18:54;11.60;95.90
52459;DHT22;38372;52.902;6.024;2024-03-08T13:21:24;11.60;97.50
52459;DHT22;38372;52.902;6.024;2024-03-08T13:23:50;11.60;95.90
52459;DHT22;38372;52.902;6.024;2024-03-08T13:26:19;11.50;97.50
52459;DHT22;38372;52.902;6.024;2024-03-08T13:28:53;11.40;96.80
52459;DHT22;38372;52.902;6.024;2024-03-08T13:31:23;11.40;97.40
52459;DHT22;38372;52.902;6.024;2024-03-08T13:33:53;11.20;96.90
52459;DHT22;38372;52.902;6.024;2024-03-08T13:36:24;11.00;97.80
52459;DHT22;38372;52.902;6.024;2024-03-08T13:38:54;11.00;97.50
52459;DHT22;38372;52.902;6.024;2024-03-08T13:41:21;11.20;98.20
52459;DHT22;38372;52.902;6.024;2024-03-08T13:43:56;11.40;97.90
52459;DHT22;38372;52.902;6.024;2024-03-08T13:46:27;11.50;95.90
52459;DHT22;38372;52.902;6.024;2024-03-08T13:49:04;11.40;96.10
52459;DHT22;38372;52.902;6.024;2024-03-08T13:51:36;11.20;97.30
52459;DHT22;38372;52.902;6.024;2024-03-08T13:54:04;11.10;96.50
52459;DHT22;38372;52.902;6.024;2024-03-08T13:56:35;10.90;96.20
52459;DHT22;38372;52.902;6.024;2024-03-08T13:59:03;10.80;96.00
52459;DHT22;38372;52.902;6.024;2024-03-08T14:01:31;10.70;96.30
52459;DHT22;38372;52.902;6.024;2024-03-08T14:04:05;10.60;97.60
52459;DHT22;38372;52.902;6.024;2024-03-08T14:06:34;10.60;96.40
52459;DHT22;38372;52.902;6.024;2024-03-08T14:09:00;10.60;97.00
52459;DHT22;38372;52.902;6.024;2024-03-08T14:11:29;10.70;96.70
52459;DHT22;38372;52.902;6.024;2024-03-08T14:13:58;10.80;97.30
52459;DHT22;38372;52.902;6.024;2024-03-08T14:16:28;10.80;98.10
52459;DHT22;38372;52.902;6.024;2024-03-08T14:18:56;10.80;97.30
52459;DHT22;38372;52.902;6.024;2024-03-08T14:21:32;10.80;97.10
52459;DHT22;38372;52.902;6.024;2024-03-08T14:24:03;10.80;97.20
52459;DHT22;38372;52.902;6.024;2024-03-08T14:26:30;10.80;96.10
52459;DHT22;38372;52.902;6.024;2024-03-08T14:29:06;10.80;97.00
52459;DHT22;38372;52.902;6.024;2024-03-08T14:31:43;10.90;97.10
52459;DHT22;38372;52.902;6.024;2024-03-08T14:34:10;11.00;97.30
52459;DHT22;38372;52.902;6.024;2024-03-08T14:36:37;10.90;96.50
52459;DHT22;38372;52.902;6.024;2024-03-08T14:39:04;10.80;96.40
52459;DHT22;38372;52.902;6.024;2024-03-08T14:41:34;10.80;97.20
52459;DHT22;38372;52.902;6.024;2024-03-08T14:44:06;10.80;97.30
52459;DHT22;38372;52.902;6.024;2024-03-08T14:46:32;10.70;97.10
52459;DHT22;38372;52.902;6.024;2024-03-08T14:49:00;10.60;97.20
52459;DHT22;38372;52.902;6.024;2024-03-08T14:51:30;10.50;97.00
52459;DHT22;38372;52.902;6.024;2024-03-08T14:54:01;10.40;97.10
52459;DHT22;38372;52.902;6.024;2024-03-08T14:56:36;10.20;97.00
52459;DHT22;38372;52.902;6.024;2024-03-08T14:59:03;10.20;97.90
52459;DHT22;38372;52.902;6.024;2024-03-08T15:01:33;10.50;98.90
52459;DHT22;38372;52.902;6.024;2024-03-08T15:04:05;10.70;98.00
52459;DHT22;38372;52.902;6.024;2024-03-08T15:06:38;10.90;97.80
52459;DHT22;38372;52.902;6.024;2024-03-08T15:09:09;11.10;97.50
52459;DHT22;38372;52.902;6.024;2024-03-08T15:11:54;11.10;96.60
52459;DHT22;38372;52.902;6.024;2024-03-08T15:14:26;11.10;96.20
52459;DHT22;38372;52.902;6.024;2024-03-08T15:16:54;11.20;95.40
52459;DHT22;38372;52.902;6.024;2024-03-08T15:19:20;11.20;95.80
52459;DHT22;38372;52.902;6.024;2024-03-08T15:21:49;11.20;96.10
52459;DHT22;38372;52.902;6.024;2024-03-08T15:24:16;11.10;95.30
52459;DHT22;38372;52.902;6.024;2024-03-08T15:26:46;10.70;95.60
52459;DHT22;38372;52.902;6.024;2024-03-08T15:29:19;10.60;96.70
52459;DHT22;38372;52.902;6.024;2024-03-08T15:31:54;10.40;97.20
52459;DHT22;38372;52.902;6.024;2024-03-08T15:34:25;10.50;97.10
52459;DHT22;38372;52.902;6.024;2024-03-08T15:36:52;10.70;97.20
52459;DHT22;38372;52.902;6.024;2024-03-08T15:39:20;10.90;97.20
52459;DHT22;38372;52.902;6.024;2024-03-08T15:41:51;11.10;96.70
52459;DHT22;38372;52.902;6.024;2024-03-08T15:44:20;11.20;95.70
52459;DHT22;38372;52.902;6.024;2024-03-08T15:47:04;11.30;96.50
52459;DHT22;38372;52.902;6.024;2024-03-08T15:49:41;11.60;95.00
52459;DHT22;38372;52.902;6.024;2024-03-08T15:52:13;11.60;94.40
52459;DHT22;38372;52.902;6.024;2024-03-08T15:54:58;11.50;94.40
52459;DHT22;38372;52.902;6.024;2024-03-08T15:57:27;10.90;94.70
52459;DHT22;38372;52.902;6.024;2024-03-08T15:59:56;10.50;94.60
52459;DHT22;38372;52.902;6.024;2024-03-08T16:02:30;10.20;96.20